Time;durP1;ratioP1;P1;durP2;ratioP2;P2;SDS_P1;SDS_P2;PMS_P1;PMS_P2;Temp;Humidity;BMP_temperature;BMP_pressure;BME280_temperature;BME280_humidity;BME280_pressure;Samples;Min_cycle;Max_cycle;Signal;HPM_P1;HPM_P2
2021/03/19 07:41:05;;;;;;;3.20;2.07;;;8.00;99.90;;;;;;4949423;23;20645;-66
2021/03/19 07:43:56;;;;;;;3.57;2.27;;;8.10;99.90;;;;;;4925288;29;20256;-66
2021/03/19 07:46:30;;;;;;;2.67;1.87;;;7.70;99.90;;;;;;4921923;29;20252;-66
2021/03/19 07:49:10;;;;;;;3.00;1.93;;;7.60;99.90;;;;;;4927270;29;21216;-66
2021/03/19 07:51:50;;;;;;;4.23;2.17;;;7.50;99.90;;;;;;4929714;29;20201;-66
2021/03/19 07:54:23;;;;;;;3.87;2.10;;;7.90;99.90;;;;;;4933148;29;20209;-66
2021/03/19 07:56:59;;;;;;;3.33;2.03;;;8.10;99.90;;;;;;4935914;29;20726;-66
2021/03/19 07:59:41;;;;;;;3.63;1.80;;;8.50;99.90;;;;;;4936630;29;20256;-66
2021/03/19 08:02:44;;;;;;;2.50;1.87;;;8.90;99.90;;;;;;4935326;29;20209;-67
2021/03/19 08:05:21;;;;;;;3.17;1.87;;;9.20;99.90;;;;;;4929345;29;20212;-67
2021/03/19 08:07:55;;;;;;;3.13;1.90;;;8.90;99.90;;;;;;4936175;29;20232;-66
2021/03/19 08:10:26;;;;;;;4.30;2.07;;;8.60;99.90;;;;;;4935351;29;20307;-67
2021/03/19 08:13:02;;;;;;;3.43;1.83;;;7.70;99.90;;;;;;4935352;29;20228;-67
2021/03/19 08:15:35;;;;;;;3.63;1.80;;;7.40;99.90;;;;;;4935143;29;20635;-66
2021/03/19 08:18:10;;;;;;;5.70;2.33;;;7.10;99.90;;;;;;4935596;29;20608;-67
2021/03/19 08:20:49;;;;;;;2.50;1.73;;;7.10;99.90;;;;;;4934944;29;20255;-67
2021/03/19 08:23:23;;;;;;;4.23;1.77;;;7.10;99.90;;;;;;4934808;29;20240;-67
2021/03/19 08:25:55;;;;;;;3.93;1.83;;;7.40;99.90;;;;;;4933205;29;20204;-66
2021/03/19 08:28:36;;;;;;;3.60;1.90;;;7.70;99.90;;;;;;4934775;29;20200;-68
2021/03/19 08:31:16;;;;;;;3.87;1.93;;;7.40;99.90;;;;;;4934561;29;20213;-66
2021/03/19 08:33:55;;;;;;;3.43;2.00;;;7.50;99.90;;;;;;4936291;29;20209;-67
2021/03/19 08:36:31;;;;;;;3.77;2.03;;;8.00;99.90;;;;;;4939372;29;20232;-66
2021/03/19 08:39:06;;;;;;;4.17;2.13;;;8.40;99.90;;;;;;4939407;29;20252;-67
2021/03/19 08:41:38;;;;;;;2.77;1.80;;;8.20;99.90;;;;;;4939711;29;20216;-67
2021/03/19 08:44:10;;;;;;;3.70;2.00;;;7.60;99.90;;;;;;4939234;29;20232;-66
2021/03/19 08:46:42;;;;;;;3.70;1.70;;;7.40;99.90;;;;;;4939008;29;20284;-68
2021/03/19 08:49:14;;;;;;;2.50;1.70;;;7.50;99.90;;;;;;4938432;29;20220;-67
2021/03/19 08:51:43;;;;;;;2.27;1.30;;;8.10;99.90;;;;;;4939377;29;20208;-67
2021/03/19 08:54:22;;;;;;;2.40;1.20;;;8.40;99.90;;;;;;4939285;29;20216;-66
2021/03/19 08:56:51;;;;;;;2.23;1.10;;;8.00;99.90;;;;;;4939245;29;20332;-68
2021/03/19 08:59:52;;;;;;;2.33;0.97;;;7.80;99.90;;;;;;4939276;29;20283;-66
2021/03/19 09:02:48;;;;;;;1.63;1.10;;;7.70;99.90;;;;;;4938372;29;20232;-67
2021/03/19 09:05:26;;;;;;;3.03;1.00;;;7.40;99.90;;;;;;4938712;29;20616;-66
2021/03/19 09:08:22;;;;;;;2.60;1.30;;;7.80;99.90;;;;;;4938494;29;20636;-66
2021/03/19 09:11:12;;;;;;;3.70;1.20;;;8.20;99.90;;;;;;4927100;29;20217;-66
2021/03/19 09:13:54;;;;;;;2.70;1.13;;;7.80;99.90;;;;;;4917966;29;20216;-67
2021/03/19 09:16:55;;;;;;;3.90;1.13;;;8.10;99.90;;;;;;4916612;29;20523;-65
2021/03/19 09:20:00;;;;;;;2.53;1.00;;;8.10;99.90;;;;;;4896112;29;20309;-68
2021/03/19 09:22:34;;;;;;;1.50;1.03;;;8.00;99.90;;;;;;4898424;29;20331;-69
2021/03/19 09:25:36;;;;;;;2.37;1.10;;;8.00;99.90;;;;;;4898497;29;20210;-70
2021/03/19 09:28:47;;;;;;;3.03;1.20;;;7.50;99.90;;;;;;4899449;29;20214;-68
2021/03/19 09:31:35;;;;;;;3.23;1.10;;;7.40;99.90;;;;;;4911920;29;20209;-66
2021/03/19 09:34:13;;;;;;;2.67;1.10;;;6.70;99.90;;;;;;4915361;29;20241;-76
2021/03/19 09:37:10;;;;;;;2.03;1.23;;;6.50;99.90;;;;;;4920051;29;20252;-67
2021/03/19 09:39:53;;;;;;;2.23;1.10;;;6.30;99.90;;;;;;4918937;29;20553;-67
2021/03/19 09:42:52;;;;;;;3.53;1.17;;;6.50;99.90;;;;;;4919552;29;20244;-65
2021/03/19 09:45:40;;;;;;;2.03;1.27;;;6.60;99.90;;;;;;4918497;29;20209;-67
2021/03/19 09:48:20;;;;;;;2.13;1.03;;;6.60;99.90;;;;;;4919212;29;20213;-66
2021/03/19 09:50:53;;;;;;;1.60;0.90;;;6.30;99.90;;;;;;4918805;29;20564;-67
2021/03/19 09:53:28;;;;;;;1.90;1.10;;;6.30;99.90;;;;;;4918892;29;20212;-66
2021/03/19 09:55:59;;;;;;;1.97;1.10;;;6.50;99.90;;;;;;4918739;29;20768;-65
2021/03/19 09:58:37;;;;;;;1.10;0.80;;;6.50;99.90;;;;;;4918516;29;20244;-66
2021/03/19 10:01:09;;;;;;;3.20;1.23;;;6.50;99.90;;;;;;4918490;29;20223;-66
2021/03/19 10:03:45;;;;;;;1.27;0.80;;;6.60;99.90;;;;;;4918374;29;20320;-66
2021/03/19 10:06:27;;;;;;;1.50;0.80;;;6.70;99.90;;;;;;4918247;29;20712;-66
2021/03/19 10:09:15;;;;;;;1.87;1.00;;;6.60;99.90;;;;;;4918248;29;20216;-66
2021/03/19 10:12:00;;;;;;;1.57;0.80;;;6.70;99.90;;;;;;4918180;29;20213;-66
2021/03/19 10:14:30;;;;;;;0.93;0.70;;;6.70;99.90;;;;;;4918197;29;20268;-66
2021/03/19 10:17:21;;;;;;;1.47;0.70;;;6.70;99.90;;;;;;4918091;29;20285;-67
2021/03/19 10:19:50;;;;;;;1.20;0.53;;;6.80;99.90;;;;;;4918597;29;20216;-66
2021/03/19 10:22:29;;;;;;;1.17;0.67;;;6.70;99.90;;;;;;4918370;29;20213;-66
2021/03/19 10:24:55;;;;;;;0.87;0.53;;;6.90;99.90;;;;;;4917923;29;20209;-66
2021/03/19 10:27:22;;;;;;;1.30;0.70;;;7.00;99.80;;;;;;4918168;29;20236;-66
2021/03/19 10:29:51;;;;;;;1.00;0.40;;;7.00;98.40;;;;;;4917909;29;20218;-66
2021/03/19 10:32:22;;;;;;;0.90;0.40;;;6.90;99.00;;;;;;4918190;29;20221;-66
2021/03/19 10:34:54;;;;;;;1.53;0.77;;;6.80;99.50;;;;;;4918046;29;20210;-66
2021/03/19 10:37:33;;;;;;;1.50;0.60;;;6.90;99.20;;;;;;4917786;29;20261;-67
2021/03/19 10:40:04;;;;;;;1.10;0.60;;;7.10;99.90;;;;;;4917661;29;20259;-67
2021/03/19 10:42:38;;;;;;;0.70;0.57;;;7.00;99.60;;;;;;4917735;29;20233;-66
2021/03/19 10:45:24;;;;;;;2.60;0.87;;;6.90;99.10;;;;;;4917730;29;20213;-67
2021/03/19 10:47:54;;;;;;;1.43;0.60;;;7.00;98.60;;;;;;4917550;29;20286;-67
2021/03/19 10:50:24;;;;;;;0.63;0.40;;;7.20;97.60;;;;;;4917499;29;20269;-66
2021/03/19 10:52:59;;;;;;;1.47;0.60;;;7.10;96.40;;;;;;4917722;29;20225;-67
2021/03/19 10:55:31;;;;;;;0.70;0.50;;;7.10;96.30;;;;;;4917591;29;20235;-66
2021/03/19 10:58:31;;;;;;;0.60;0.40;;;7.30;97.00;;;;;;4917345;29;20233;-67
2021/03/19 11:00:58;;;;;;;1.63;0.53;;;7.20;95.90;;;;;;4917051;29;20618;-66
2021/03/19 11:03:34;;;;;;;2.20;0.60;;;7.30;96.50;;;;;;4917064;29;20241;-67
2021/03/19 11:06:03;;;;;;;0.73;0.40;;;7.10;95.70;;;;;;4917340;29;20229;-67
2021/03/19 11:08:30;;;;;;;0.87;0.53;;;7.20;97.70;;;;;;4917314;29;20216;-67
2021/03/19 11:10:57;;;;;;;1.27;0.60;;;7.30;96.60;;;;;;4917251;29;20546;-67
2021/03/19 11:13:27;;;;;;;1.10;0.70;;;7.30;97.00;;;;;;4917271;29;20261;-67
2021/03/19 11:15:56;;;;;;;1.17;0.80;;;7.40;97.80;;;;;;4917307;29;20237;-67
2021/03/19 11:18:27;;;;;;;1.43;1.00;;;7.60;97.60;;;;;;4917120;29;20273;-67
2021/03/19 11:20:56;;;;;;;1.50;0.60;;;7.70;97.10;;;;;;4917284;29;20367;-67
2021/03/19 11:23:31;;;;;;;2.43;0.90;;;7.70;97.40;;;;;;4917733;29;20246;-67
2021/03/19 11:25:59;;;;;;;1.50;0.80;;;7.90;97.30;;;;;;4916608;29;20233;-67
2021/03/19 11:28:39;;;;;;;1.47;1.00;;;8.10;96.30;;;;;;4917441;29;20217;-66
2021/03/19 11:31:18;;;;;;;2.20;0.90;;;8.20;96.00;;;;;;4916975;29;20684;-67
2021/03/19 11:33:57;;;;;;;1.00;0.80;;;8.20;95.80;;;;;;4916611;29;20680;-66
2021/03/19 11:36:24;;;;;;;2.70;0.73;;;8.00;95.90;;;;;;4916663;29;20228;-67
2021/03/19 11:38:52;;;;;;;0.73;0.60;;;7.90;96.60;;;;;;4917000;29;20229;-67
2021/03/19 11:41:28;;;;;;;1.47;0.67;;;7.70;96.50;;;;;;4916943;29;20209;-67
2021/03/19 11:43:55;;;;;;;0.97;0.80;;;7.70;96.70;;;;;;4916651;29;20704;-67
2021/03/19 11:46:22;;;;;;;0.77;0.70;;;7.60;97.10;;;;;;4916785;29;20245;-68
2021/03/19 11:48:49;;;;;;;1.17;0.60;;;7.80;96.90;;;;;;4916584;29;20217;-67
2021/03/19 11:51:17;;;;;;;1.33;0.80;;;7.70;96.60;;;;;;4916725;29;20265;-68
2021/03/19 11:53:44;;;;;;;1.53;1.03;;;7.60;97.90;;;;;;4916740;29;20209;-67
2021/03/19 11:56:11;;;;;;;0.90;0.70;;;7.80;97.30;;;;;;4916342;29;20234;-68
2021/03/19 11:58:38;;;;;;;2.40;0.80;;;7.90;97.20;;;;;;4916688;29;20213;-67
2021/03/19 12:01:06;;;;;;;3.23;0.63;;;8.10;97.30;;;;;;4916698;29;20213;-68
2021/03/19 12:03:34;;;;;;;1.83;1.00;;;8.00;95.40;;;;;;4916679;29;20241;-68
2021/03/19 12:06:02;;;;;;;1.27;0.70;;;8.00;96.30;;;;;;4916496;29;20241;-68
2021/03/19 12:08:29;;;;;;;2.10;0.70;;;8.10;95.60;;;;;;4916874;29;20331;-68
2021/03/19 12:10:56;;;;;;;2.00;0.80;;;8.10;95.80;;;;;;4920609;29;20218;-67
2021/03/19 12:13:22;;;;;;;1.03;0.80;;;8.20;95.80;;;;;;4920434;29;20213;-68
2021/03/19 12:15:50;;;;;;;1.43;0.83;;;8.20;95.10;;;;;;4920370;29;20218;-68
2021/03/19 12:18:18;;;;;;;1.73;0.77;;;8.30;95.30;;;;;;4920600;29;20228;-67
2021/03/19 12:20:45;;;;;;;0.97;0.80;;;8.30;94.60;;;;;;4920523;29;20206;-68
2021/03/19 12:23:11;;;;;;;2.10;0.50;;;8.30;94.70;;;;;;4920184;29;20233;-68
2021/03/19 12:25:39;;;;;;;3.07;1.00;;;8.30;95.40;;;;;;4920065;29;20213;-68
2021/03/19 12:28:07;;;;;;;1.30;0.70;;;8.40;95.10;;;;;;4920178;29;20206;-68
2021/03/19 12:30:33;;;;;;;1.00;0.60;;;8.50;93.90;;;;;;4919782;29;20308;-69
2021/03/19 12:33:00;;;;;;;1.03;0.60;;;8.50;94.40;;;;;;4919799;29;20613;-67
2021/03/19 12:35:28;;;;;;;1.67;0.37;;;8.50;94.20;;;;;;4919933;29;20573;-67
2021/03/19 12:37:55;;;;;;;0.90;0.70;;;8.50;93.70;;;;;;4919865;29;20234;-67
2021/03/19 12:40:23;;;;;;;2.17;0.80;;;8.40;94.40;;;;;;4919650;29;20217;-65
2021/03/19 12:42:50;;;;;;;1.00;0.70;;;8.50;95.50;;;;;;4919802;29;20238;-66
2021/03/19 12:45:19;;;;;;;0.60;0.50;;;8.70;94.40;;;;;;4920195;29;20292;-66
2021/03/19 12:47:45;;;;;;;1.40;0.77;;;8.60;93.60;;;;;;4919856;29;20233;-66
2021/03/19 12:50:13;;;;;;;1.00;0.80;;;8.40;94.00;;;;;;4920008;29;20205;-67
2021/03/19 12:52:39;;;;;;;1.00;0.80;;;8.30;93.70;;;;;;4919939;29;20268;-66
2021/03/19 12:55:07;;;;;;;1.93;0.50;;;8.50;93.40;;;;;;4919604;29;20619;-66
2021/03/19 12:57:33;;;;;;;2.13;0.90;;;8.50;93.40;;;;;;4919671;29;20588;-67
2021/03/19 12:59:59;;;;;;;0.80;0.67;;;8.40;93.20;;;;;;4919542;29;20209;-66
2021/03/19 13:02:25;;;;;;;0.80;0.70;;;8.50;92.20;;;;;;4915603;29;20205;-68
2021/03/19 13:04:51;;;;;;;1.27;0.60;;;8.60;91.60;;;;;;4918514;29;20214;-69
2021/03/19 13:07:19;;;;;;;0.90;0.70;;;8.30;91.60;;;;;;4918273;29;20380;-69
2021/03/19 13:09:45;;;;;;;1.33;0.73;;;8.30;92.50;;;;;;4917609;29;20214;-68
2021/03/19 13:12:11;;;;;;;1.50;0.73;;;8.40;92.30;;;;;;4917713;29;20225;-69
2021/03/19 13:14:37;;;;;;;1.20;0.73;;;8.60;92.80;;;;;;4918230;29;20213;-68
2021/03/19 13:17:06;;;;;;;0.73;0.60;;;8.60;93.10;;;;;;4918376;29;20238;-68
2021/03/19 13:19:32;;;;;;;1.43;0.70;;;8.80;93.30;;;;;;4918333;29;20273;-70
2021/03/19 13:21:58;;;;;;;1.27;0.70;;;8.70;91.90;;;;;;4916443;29;20210;-68
2021/03/19 13:24:25;;;;;;;0.80;0.50;;;8.80;91.30;;;;;;4917394;29;20244;-70
2021/03/19 13:26:52;;;;;;;2.77;0.77;;;8.80;91.70;;;;;;4917519;29;20233;-69
2021/03/19 13:29:18;;;;;;;1.27;0.60;;;8.80;90.10;;;;;;4918308;29;20217;-69
2021/03/19 13:31:44;;;;;;;1.00;0.50;;;8.80;90.60;;;;;;4917033;29;20218;-69
2021/03/19 13:34:11;;;;;;;4.27;0.57;;;8.80;90.50;;;;;;4917787;29;20213;-69
2021/03/19 13:36:38;;;;;;;1.63;0.90;;;8.90;90.80;;;;;;4918446;29;20240;-70
2021/03/19 13:39:06;;;;;;;0.80;0.60;;;8.80;90.80;;;;;;4917301;29;20221;-69
2021/03/19 13:41:37;;;;;;;0.87;0.50;;;8.70;90.90;;;;;;4917535;29;20206;-70
2021/03/19 13:44:05;;;;;;;1.53;0.40;;;8.50;90.80;;;;;;4917453;29;20625;-67
2021/03/19 13:46:32;;;;;;;1.53;0.63;;;8.70;90.60;;;;;;4918994;29;20225;-68
2021/03/19 13:48:58;;;;;;;1.90;0.87;;;8.80;91.40;;;;;;4918733;29;20794;-67
2021/03/19 13:51:25;;;;;;;0.87;0.60;;;8.50;91.00;;;;;;4918473;29;20648;-67
2021/03/19 13:53:51;;;;;;;0.90;0.63;;;8.60;92.00;;;;;;4918439;29;20218;-69
2021/03/19 13:56:21;;;;;;;1.20;0.60;;;8.80;91.60;;;;;;4918460;29;20704;-68
2021/03/19 13:58:48;;;;;;;1.43;0.60;;;9.00;91.40;;;;;;4918699;29;20245;-67
2021/03/19 14:01:14;;;;;;;1.00;0.70;;;9.00;91.10;;;;;;4918706;29;20335;-67
2021/03/19 14:03:41;;;;;;;0.90;0.60;;;8.90;90.70;;;;;;4918498;29;20241;-66
2021/03/19 14:06:07;;;;;;;1.10;0.50;;;8.70;90.50;;;;;;4918878;29;20245;-66
2021/03/19 14:08:37;;;;;;;3.13;0.60;;;8.80;91.00;;;;;;4918353;29;20209;-67
2021/03/19 14:11:09;;;;;;;0.90;0.67;;;8.80;90.50;;;;;;4918239;29;20705;-66
2021/03/19 14:13:36;;;;;;;0.60;0.50;;;8.90;90.60;;;;;;4918590;29;20217;-66
2021/03/19 14:16:05;;;;;;;0.97;0.70;;;9.00;90.50;;;;;;4918497;29;20225;-67
2021/03/19 14:18:31;;;;;;;1.50;0.70;;;9.00;90.30;;;;;;4918272;29;20223;-66
2021/03/19 14:20:57;;;;;;;2.30;0.60;;;9.10;90.20;;;;;;4918119;29;20213;-66
2021/03/19 14:23:26;;;;;;;1.07;0.70;;;9.20;90.60;;;;;;4918390;29;20760;-66
2021/03/19 14:25:54;;;;;;;0.90;0.60;;;9.30;89.60;;;;;;4917925;29;20210;-66
2021/03/19 14:28:22;;;;;;;2.17;0.50;;;9.20;90.40;;;;;;4917991;29;20210;-66
2021/03/19 14:30:49;;;;;;;1.27;0.70;;;9.00;90.00;;;;;;4918053;29;20546;-66
2021/03/19 14:33:17;;;;;;;3.20;0.77;;;9.00;89.40;;;;;;4917820;29;20293;-67
2021/03/19 14:35:44;;;;;;;0.67;0.53;;;9.00;89.00;;;;;;4917855;29;20626;-67
2021/03/19 14:38:12;;;;;;;0.70;0.50;;;9.00;87.00;;;;;;4917892;29;20673;-67
2021/03/19 14:40:39;;;;;;;1.73;0.53;;;8.90;88.70;;;;;;4917721;29;20256;-68
2021/03/19 14:43:06;;;;;;;1.13;0.63;;;9.00;88.70;;;;;;4917723;29;20241;-68
2021/03/19 14:45:33;;;;;;;1.40;0.70;;;9.10;89.90;;;;;;4917777;29;20221;-67
2021/03/19 14:48:00;;;;;;;0.70;0.50;;;9.30;90.20;;;;;;4917643;29;20210;-68
2021/03/19 14:50:30;;;;;;;2.30;0.80;;;9.40;90.20;;;;;;4917846;29;20206;-68
2021/03/19 14:52:56;;;;;;;1.20;0.70;;;9.50;88.60;;;;;;4917544;29;20213;-67
2021/03/19 14:55:23;;;;;;;1.13;0.47;;;9.50;89.60;;;;;;4917543;29;20265;-66
2021/03/19 14:57:49;;;;;;;0.93;0.60;;;9.70;90.00;;;;;;4917504;29;20302;-67
2021/03/19 15:00:21;;;;;;;0.90;0.60;;;9.60;88.10;;;;;;4917633;29;20665;-69
2021/03/19 15:02:49;;;;;;;3.60;0.70;;;9.60;87.20;;;;;;4917047;29;20221;-67
2021/03/19 15:05:16;;;;;;;2.53;1.10;;;9.60;87.90;;;;;;4917504;29;20205;-66
2021/03/19 15:07:43;;;;;;;0.83;0.50;;;9.50;88.70;;;;;;4917380;29;20327;-66
2021/03/19 15:10:11;;;;;;;1.30;0.60;;;9.60;88.90;;;;;;4917272;29;20676;-66
2021/03/19 15:12:37;;;;;;;1.13;0.53;;;9.70;88.70;;;;;;4917376;29;20210;-66
2021/03/19 15:15:05;;;;;;;3.07;0.60;;;9.50;89.80;;;;;;4917184;29;20237;-67
2021/03/19 15:17:31;;;;;;;1.23;0.67;;;9.60;88.30;;;;;;4917560;29;20234;-66
2021/03/19 15:19:57;;;;;;;1.10;0.60;;;9.20;88.80;;;;;;4917381;29;20209;-68
2021/03/19 15:22:24;;;;;;;1.83;0.73;;;9.20;90.30;;;;;;4917264;29;20206;-68
2021/03/19 15:24:51;;;;;;;1.83;0.70;;;9.50;90.10;;;;;;4917065;29;20238;-67
2021/03/19 15:27:17;;;;;;;2.77;0.70;;;9.50;90.70;;;;;;4917222;29;20247;-67
2021/03/19 15:29:43;;;;;;;0.83;0.53;;;9.50;90.50;;;;;;4917194;29;20213;-68
2021/03/19 15:32:10;;;;;;;0.97;0.63;;;9.60;90.80;;;;;;4916997;29;20264;-69
2021/03/19 15:34:36;;;;;;;0.90;0.60;;;9.60;90.10;;;;;;4916925;29;20669;-69
2021/03/19 15:37:02;;;;;;;3.50;0.80;;;9.60;90.30;;;;;;4916976;29;20237;-68
2021/03/19 15:39:28;;;;;;;0.60;0.40;;;9.60;90.10;;;;;;4916947;29;20217;-68
2021/03/19 15:41:55;;;;;;;1.00;0.80;;;9.50;89.70;;;;;;4916922;29;20216;-69
2021/03/19 15:44:22;;;;;;;1.93;0.80;;;9.50;90.30;;;;;;4916160;29;20237;-69
2021/03/19 15:46:48;;;;;;;2.40;0.70;;;9.50;90.50;;;;;;4917247;29;20330;-69
2021/03/19 15:49:14;;;;;;;1.03;0.63;;;9.50;91.00;;;;;;4916988;29;20585;-67
2021/03/19 15:51:41;;;;;;;1.30;0.80;;;9.50;90.80;;;;;;4916826;29;20216;-67
2021/03/19 15:54:07;;;;;;;1.20;0.60;;;9.50;89.70;;;;;;4917119;29;20209;-67
2021/03/19 15:56:33;;;;;;;1.23;0.60;;;9.50;90.00;;;;;;4916455;29;20229;-67
2021/03/19 15:59:00;;;;;;;1.07;0.70;;;9.40;90.50;;;;;;4916816;29;20205;-67
2021/03/19 16:01:26;;;;;;;1.30;0.67;;;9.20;90.90;;;;;;4916805;29;20220;-69
2021/03/19 16:03:53;;;;;;;1.47;0.80;;;9.30;90.90;;;;;;4916713;29;20246;-68
2021/03/19 16:06:19;;;;;;;1.30;0.70;;;9.40;91.10;;;;;;4913187;29;20229;-67
2021/03/19 16:08:46;;;;;;;1.83;0.70;;;9.40;90.90;;;;;;4915774;29;20209;-67
2021/03/19 16:11:12;;;;;;;1.93;0.73;;;9.50;91.20;;;;;;4915252;29;20214;-68
2021/03/19 16:13:46;;;;;;;1.93;0.70;;;9.60;91.30;;;;;;4914810;29;20577;-69
2021/03/19 16:16:14;;;;;;;2.80;1.03;;;9.80;91.20;;;;;;4915294;29;20725;-67
2021/03/19 16:18:40;;;;;;;1.17;0.70;;;9.70;90.80;;;;;;4915504;29;20216;-69
2021/03/19 16:21:08;;;;;;;1.00;0.80;;;9.70;90.50;;;;;;4914812;29;20673;-66
2021/03/19 16:23:34;;;;;;;1.00;0.77;;;9.50;88.60;;;;;;4915380;29;20233;-67
2021/03/19 16:26:02;;;;;;;1.30;0.70;;;9.50;90.00;;;;;;4915110;29;20230;-65
2021/03/19 16:28:28;;;;;;;3.57;0.70;;;9.30;88.50;;;;;;4915227;29;20275;-66
2021/03/19 16:30:56;;;;;;;0.67;0.60;;;9.20;90.20;;;;;;4915515;29;20210;-66
2021/03/19 16:33:24;;;;;;;1.40;0.53;;;9.20;89.80;;;;;;4915419;29;20248;-66
2021/03/19 16:35:53;;;;;;;0.90;0.70;;;9.10;89.70;;;;;;4914977;29;20213;-67
2021/03/19 16:38:21;;;;;;;0.80;0.50;;;8.90;90.20;;;;;;4915046;29;20209;-66
2021/03/19 16:40:50;;;;;;;0.97;0.60;;;8.90;90.60;;;;;;4916267;29;20221;-67
2021/03/19 16:43:17;;;;;;;1.40;0.70;;;8.70;90.70;;;;;;4915332;29;20226;-67
2021/03/19 16:45:44;;;;;;;0.87;0.60;;;8.60;91.00;;;;;;4915107;29;20214;-69
2021/03/19 16:48:13;;;;;;;2.23;0.77;;;8.60;91.10;;;;;;4915633;29;20748;-69
2021/03/19 16:50:40;;;;;;;3.83;0.87;;;8.70;90.90;;;;;;4916295;29;20256;-68
2021/03/19 16:53:07;;;;;;;0.87;0.60;;;8.70;90.80;;;;;;4916254;29;20672;-66
2021/03/19 16:55:37;;;;;;;0.80;0.50;;;8.80;90.70;;;;;;4918043;29;20212;-67
2021/03/19 16:58:04;;;;;;;0.93;0.70;;;9.00;90.10;;;;;;4920038;29;20225;-67
2021/03/19 17:00:32;;;;;;;1.97;0.53;;;9.10;90.30;;;;;;4919852;29;20719;-67
2021/03/19 17:02:59;;;;;;;2.03;0.77;;;9.00;90.20;;;;;;4919661;29;20649;-67
2021/03/19 17:05:26;;;;;;;1.03;0.57;;;8.80;90.70;;;;;;4919484;29;20209;-67
2021/03/19 17:07:53;;;;;;;0.90;0.53;;;8.80;90.60;;;;;;4919638;29;20270;-67
2021/03/19 17:10:22;;;;;;;0.73;0.53;;;8.80;90.80;;;;;;4919429;29;20213;-67
2021/03/19 17:12:49;;;;;;;0.83;0.60;;;8.80;90.90;;;;;;4919442;29;20672;-68
2021/03/19 17:15:17;;;;;;;1.77;0.63;;;8.70;90.80;;;;;;4919698;29;20605;-67
2021/03/19 17:17:44;;;;;;;2.40;0.50;;;8.70;90.90;;;;;;4919070;29;20238;-67
2021/03/19 17:20:11;;;;;;;0.83;0.53;;;8.70;90.90;;;;;;4919118;29;20239;-68
2021/03/19 17:22:38;;;;;;;0.70;0.50;;;8.50;91.40;;;;;;4919320;29;20485;-67
2021/03/19 17:25:07;;;;;;;1.33;0.50;;;8.50;92.00;;;;;;4919407;29;20244;-67
2021/03/19 17:27:34;;;;;;;3.03;0.63;;;8.50;91.80;;;;;;4915310;29;20308;-70
2021/03/19 17:30:01;;;;;;;0.90;0.70;;;8.50;91.60;;;;;;4917483;29;20213;-74
2021/03/19 17:32:27;;;;;;;1.60;0.97;;;8.60;91.80;;;;;;4917552;29;20209;-79
2021/03/19 17:34:55;;;;;;;1.60;0.73;;;8.50;91.90;;;;;;4917437;29;20233;-78
2021/03/19 17:37:22;;;;;;;2.70;0.87;;;8.40;92.10;;;;;;4917013;29;20701;-69
2021/03/19 17:39:48;;;;;;;1.93;0.70;;;8.30;92.30;;;;;;4917428;29;20272;-74
2021/03/19 17:42:15;;;;;;;4.00;0.90;;;8.30;92.50;;;;;;4917798;29;20213;-79
2021/03/19 17:44:42;;;;;;;2.97;0.90;;;8.30;92.60;;;;;;4916839;29;20775;-76
2021/03/19 17:47:08;;;;;;;1.43;0.60;;;8.40;92.80;;;;;;4916380;29;20221;-75
2021/03/19 17:49:35;;;;;;;1.13;0.73;;;8.50;92.40;;;;;;4917045;29;20229;-71
2021/03/19 17:52:01;;;;;;;2.57;0.87;;;8.60;92.50;;;;;;4916628;29;20558;-69
2021/03/19 17:54:27;;;;;;;2.90;1.20;;;8.50;92.50;;;;;;4916937;29;20213;-68
2021/03/19 17:56:53;;;;;;;1.73;0.80;;;8.50;92.60;;;;;;4916537;29;20225;-68
2021/03/19 17:59:20;;;;;;;1.10;0.60;;;8.50;92.90;;;;;;4915750;29;20212;-68
2021/03/19 18:01:47;;;;;;;2.47;0.90;;;8.60;92.60;;;;;;4916216;29;20723;-68
2021/03/19 18:04:13;;;;;;;1.60;0.80;;;8.70;92.90;;;;;;4916618;29;20301;-69
2021/03/19 18:06:40;;;;;;;1.00;0.70;;;8.80;92.80;;;;;;4916069;29;20226;-69
2021/03/19 18:09:08;;;;;;;1.20;0.80;;;8.80;93.00;;;;;;4916572;29;20212;-69
2021/03/19 18:11:34;;;;;;;1.57;0.80;;;8.80;93.00;;;;;;4917100;29;20245;-71
2021/03/19 18:14:00;;;;;;;1.20;0.70;;;8.80;93.00;;;;;;4917065;29;20209;-70
2021/03/19 18:16:28;;;;;;;1.53;0.93;;;8.80;93.10;;;;;;4916186;29;20234;-71
2021/03/19 18:18:54;;;;;;;3.90;1.10;;;8.80;93.00;;;;;;4916595;29;20643;-70
2021/03/19 18:21:32;;;;;;;1.50;0.90;;;8.90;92.70;;;;;;4916544;29;20580;-70
2021/03/19 18:23:59;;;;;;;1.57;1.00;;;8.80;93.10;;;;;;4915999;29;20229;-70
2021/03/19 18:26:27;;;;;;;1.40;1.20;;;8.80;93.00;;;;;;4915155;29;20289;-68
2021/03/19 18:28:56;;;;;;;2.50;0.97;;;8.80;93.10;;;;;;4915796;29;20210;-69
2021/03/19 18:31:22;;;;;;;1.70;0.97;;;8.70;93.20;;;;;;4917316;29;20233;-67
2021/03/19 18:33:51;;;;;;;3.07;1.20;;;8.80;93.30;;;;;;4917054;29;20217;-67
2021/03/19 18:36:20;;;;;;;2.80;1.40;;;8.70;93.40;;;;;;4917934;29;20288;-67
2021/03/19 18:38:46;;;;;;;2.03;1.37;;;8.80;93.70;;;;;;4917329;29;20304;-67
2021/03/19 18:41:13;;;;;;;2.13;1.50;;;8.60;93.50;;;;;;4917133;29;20214;-68
2021/03/19 18:43:39;;;;;;;2.53;1.50;;;8.60;93.80;;;;;;4917198;29;20829;-67
2021/03/19 18:46:07;;;;;;;1.87;1.00;;;8.70;93.70;;;;;;4917479;29;20238;-68
2021/03/19 18:48:34;;;;;;;2.40;1.10;;;8.80;93.80;;;;;;4925139;29;20197;-67
2021/03/19 18:51:01;;;;;;;4.07;1.10;;;8.80;93.70;;;;;;4922311;29;20590;-68
2021/03/19 18:53:27;;;;;;;3.30;1.33;;;8.80;93.80;;;;;;4917456;29;20673;-68
2021/03/19 18:55:53;;;;;;;3.87;2.00;;;8.70;93.80;;;;;;4917305;29;20669;-67
2021/03/19 18:58:21;;;;;;;3.13;1.70;;;8.60;93.80;;;;;;4917485;29;20205;-68
2021/03/19 19:00:50;;;;;;;2.03;1.60;;;8.60;93.90;;;;;;4917711;29;20206;-67
2021/03/19 19:03:17;;;;;;;3.80;1.97;;;8.60;94.10;;;;;;4917315;29;20712;-66
2021/03/19 19:05:44;;;;;;;4.50;1.93;;;8.60;94.10;;;;;;4917501;29;20209;-67
2021/03/19 19:08:12;;;;;;;4.93;2.10;;;8.50;94.00;;;;;;4917890;29;20245;-67
2021/03/19 19:10:38;;;;;;;5.87;2.17;;;8.50;95.00;;;;;;4917033;29;20681;-66
2021/03/19 19:13:04;;;;;;;6.33;2.47;;;8.40;94.70;;;;;;4917548;29;20311;-67
2021/03/19 19:15:31;;;;;;;3.47;2.17;;;8.50;94.50;;;;;;4917367;29;20573;-67
2021/03/19 19:17:57;;;;;;;3.93;1.97;;;8.70;94.10;;;;;;4916844;29;20731;-67
2021/03/19 19:20:26;;;;;;;3.13;1.40;;;8.80;93.90;;;;;;4916828;29;20213;-67
2021/03/19 19:22:53;;;;;;;3.17;1.60;;;8.80;94.30;;;;;;4916993;29;20210;-67
2021/03/19 19:25:20;;;;;;;3.63;2.30;;;8.60;94.10;;;;;;4912500;29;20244;-70
2021/03/19 19:27:47;;;;;;;5.73;3.67;;;8.60;94.30;;;;;;4919069;29;20237;-68
2021/03/19 19:30:17;;;;;;;6.73;3.17;;;8.60;94.50;;;;;;4911642;29;20356;-68
2021/03/19 19:32:43;;;;;;;4.70;2.50;;;8.60;94.30;;;;;;4907647;29;20217;-68
2021/03/19 19:35:11;;;;;;;4.67;1.97;;;8.60;94.60;;;;;;4912644;29;20611;-67
2021/03/19 19:37:37;;;;;;;1.80;1.20;;;8.60;94.60;;;;;;4902058;29;20277;-67
2021/03/19 19:40:05;;;;;;;3.47;1.70;;;8.60;94.80;;;;;;4911634;29;20221;-68
2021/03/19 19:42:33;;;;;;;2.93;1.20;;;8.50;95.00;;;;;;4908956;29;20258;-68
2021/03/19 19:44:59;;;;;;;4.03;1.20;;;8.40;95.10;;;;;;4904242;29;20241;-66
2021/03/19 19:47:26;;;;;;;2.03;1.20;;;8.30;95.60;;;;;;4909024;29;20276;-68
2021/03/19 19:49:52;;;;;;;3.53;1.20;;;8.20;95.80;;;;;;4904039;29;20211;-68
2021/03/19 19:52:18;;;;;;;1.80;1.10;;;8.20;96.00;;;;;;4905064;29;20261;-68
2021/03/19 19:54:45;;;;;;;3.13;1.97;;;8.20;96.60;;;;;;4905607;29;20250;-67
2021/03/19 19:57:11;;;;;;;4.50;1.50;;;8.20;97.30;;;;;;4908037;29;20226;-67
2021/03/19 19:59:38;;;;;;;3.47;1.50;;;8.10;98.10;;;;;;4908494;29;20307;-67
2021/03/19 20:02:05;;;;;;;2.63;1.37;;;7.90;99.10;;;;;;4906236;29;20262;-68
2021/03/19 20:04:32;;;;;;;2.30;1.27;;;7.90;99.90;;;;;;4909644;29;20240;-68
2021/03/19 20:06:58;;;;;;;1.70;1.03;;;7.70;99.90;;;;;;4909973;29;20229;-68
2021/03/19 20:09:24;;;;;;;2.13;1.13;;;7.50;99.90;;;;;;4907666;29;20218;-68
2021/03/19 20:11:51;;;;;;;2.10;1.33;;;7.40;99.90;;;;;;4901360;29;20214;-68
2021/03/19 20:14:17;;;;;;;1.10;0.90;;;7.40;99.90;;;;;;4910131;29;20205;-67
2021/03/19 20:16:44;;;;;;;5.37;1.60;;;7.40;99.90;;;;;;4908285;29;20281;-68
2021/03/19 20:19:13;;;;;;;2.10;1.30;;;7.40;99.90;;;;;;4906582;29;20214;-67
2021/03/19 20:21:42;;;;;;;1.53;1.00;;;7.40;99.90;;;;;;4907653;29;20301;-67
2021/03/19 20:24:11;;;;;;;2.37;1.00;;;7.30;99.90;;;;;;4910499;29;20635;-67
2021/03/19 20:26:37;;;;;;;5.87;2.57;;;7.30;99.90;;;;;;4909179;29;20226;-67
2021/03/19 20:29:06;;;;;;;7.07;2.77;;;7.30;99.90;;;;;;4907096;29;20221;-68
2021/03/19 20:31:34;;;;;;;2.13;1.13;;;7.30;99.90;;;;;;4915238;29;20217;-68
2021/03/19 20:34:02;;;;;;;2.70;1.30;;;7.20;99.90;;;;;;4913440;29;20221;-67
2021/03/19 20:36:34;;;;;;;3.50;1.67;;;7.20;99.90;;;;;;4924080;29;20652;-67
2021/03/19 20:39:05;;;;;;;2.73;1.40;;;7.10;99.90;;;;;;4922605;29;20382;-68
2021/03/19 20:41:31;;;;;;;2.80;1.63;;;7.00;99.90;;;;;;4918314;29;20220;-67
2021/03/19 20:43:57;;;;;;;2.30;1.30;;;7.00;99.90;;;;;;4910364;29;20600;-68
2021/03/19 20:46:24;;;;;;;2.37;1.30;;;7.00;99.90;;;;;;4912129;29;20293;-68
2021/03/19 20:48:50;;;;;;;3.60;1.47;;;7.00;99.90;;;;;;4914264;29;20218;-68
2021/03/19 20:51:21;;;;;;;2.83;1.43;;;7.00;99.90;;;;;;4912088;29;20209;-68
2021/03/19 20:53:49;;;;;;;1.63;1.10;;;7.00;99.90;;;;;;4903642;29;20262;-67